Time,TemperatureF,DewpointF,PressureIn,WindDirection,WindDirectionDegrees,WindSpeedMPH,WindSpeedGustMPH,Humidity,HourlyPrecipIn,Conditions,Clouds,dailyrainin,SolarRadiationWatts/m^2,SoftwareType,DateUTC
2013-03-24 00:00:00,32.4,17.1,29.94,NW,315,7.8,7.8,53,0.00,FEW,,0.00,0.0,WeatherDisplay:10.37,2013-03-24 04:00:00,
2013-03-24 00:05:00,32.5,17.3,29.94,WNW,292,10.4,10.4,53,0.00,FEW,,0.00,0.0,WeatherDisplay:10.37,2013-03-24 04:05:00,
2013-03-24 00:10:00,32.4,17.1,29.94,WNW,292,8.1,8.1,53,0.00,FEW,,0.00,0.0,WeatherDisplay:10.37,2013-03-24 04:10:00,
2013-03-24 00:15:00,32.2,16.9,29.94,West,270,6.9,6.9,53,0.00,FEW,,0.00,0.0,WeatherDisplay:10.37,2013-03-24 04:15:00,
2013-03-24 00:20:00,32.0,16.8,29.94,WNW,292,6.2,6.2,53,0.00,FEW,,0.00,0.0,WeatherDisplay:10.37,2013-03-24 04:20:00,
2013-03-24 00:25:00,32.0,16.8,29.94,West,270,6.9,6.9,53,0.00,FEW,,0.00,0.0,WeatherDisplay:10.37,2013-03-24 04:25:00,
2013-03-24 00:30:00,32.2,16.9,29.94,West,270,5.8,5.8,53,0.00,FEW,,0.00,0.0,WeatherDisplay:10.37,2013-03-24 04:30:00,
2013-03-24 00:35:00,32.0,16.8,29.94,WNW,292,7.8,7.8,53,0.00,FEW,,0.00,0.0,WeatherDisplay:10.37,2013-03-24 04:35:00,
2013-03-24 00:40:00,32.2,16.9,29.94,WNW,292,6.9,6.9,53,0.00,FEW,,0.00,0.0,WeatherDisplay:10.37,2013-03-24 04:40:00,
2013-03-24 00:45:00,32.0,16.8,29.94,West,270,4.9,4.9,53,0.00,FEW,,0.00,0.0,WeatherDisplay:10.37,2013-03-24 04:45:00,
2013-03-24 00:50:00,32.2,16.9,29.94,West,270,7.1,7.1,53,0.00,FEW,,0.00,0.0,WeatherDisplay:10.37,2013-03-24 04:50:00,
2013-03-24 00:55:00,32.2,16.9,29.94,WNW,292,7.4,7.4,53,0.00,FEW,,0.00,0.0,WeatherDisplay:10.37,2013-03-24 04:55:00,
2013-03-24 01:00:00,32.2,16.9,29.94,NW,315,6.9,6.9,53,0.00,FEW,,0.00,0.0,WeatherDisplay:10.37,2013-03-24 05:00:00,
2013-03-24 01:05:00,32.2,16.9,29.94,WNW,292,10.0,10.0,53,0.00,FEW,,0.00,0.0,WeatherDisplay:10.37,2013-03-24 05:05:00,
2013-03-24 01:10:00,32.4,17.1,29.97,WNW,292,5.9,6.0,53,0.00,FEW,,0.00,0.0,WeatherDisplay:10.37,2013-03-24 05:10:00,
2013-03-24 01:15:00,32.2,16.9,29.97,WNW,292,6.2,6.2,53,0.00,FEW,,0.00,0.0,WeatherDisplay:10.37,2013-03-24 05:15:00,
2013-03-24 01:20:00,31.8,16.6,29.97,WNW,292,5.8,5.8,53,0.00,FEW,,0.00,0.0,WeatherDisplay:10.37,2013-03-24 05:20:00,
2013-03-24 01:25:00,31.6,16.4,29.94,West,270,5.8,5.8,53,0.00,FEW,,0.00,0.0,WeatherDisplay:10.37,2013-03-24 05:25:00,
2013-03-24 01:30:00,31.6,16.4,29.94,West,270,8.1,8.1,53,0.00,FEW,,0.00,0.0,WeatherDisplay:10.37,2013-03-24 05:30:00,
2013-03-24 01:35:00,31.5,16.3,29.94,West,270,6.9,6.9,53,0.00,FEW,,0.00,0.0,WeatherDisplay:10.37,2013-03-24 05:35:00,
2013-03-24 01:40:00,31.6,16.4,29.94,West,270,6.9,6.9,53,0.00,FEW,,0.00,0.0,WeatherDisplay:10.37,2013-03-24 05:40:00,
2013-03-24 01:45:00,31.5,16.3,29.94,WNW,292,8.1,8.1,53,0.00,FEW,,0.00,0.0,WeatherDisplay:10.37,2013-03-24 05:45:00,
2013-03-24 01:50:00,31.3,16.1,29.94,WNW,292,6.0,6.0,53,0.00,FEW,,0.00,0.0,WeatherDisplay:10.37,2013-03-24 05:50:00,
2013-03-24 01:55:00,31.3,16.1,29.94,West,270,5.9,5.9,53,0.00,FEW,,0.00,0.0,WeatherDisplay:10.37,2013-03-24 05:55:00,
2013-03-24 02:00:00,31.1,15.9,29.94,West,270,5.8,5.8,53,0.00,FEW,,0.00,0.0,WeatherDisplay:10.37,2013-03-24 06:00:00,
2013-03-24 02:05:00,31.1,15.9,29.94,West,270,5.8,5.8,53,0.00,BKN,,0.00,0.0,WeatherDisplay:10.37,2013-03-24 06:05:00,
2013-03-24 02:10:00,31.1,15.9,29.94,West,270,4.6,4.6,53,0.00,BKN,,0.00,0.0,WeatherDisplay:10.37,2013-03-24 06:10:00,
2013-03-24 02:15:00,31.1,15.9,29.94,West,270,8.1,8.1,53,0.00,BKN,,0.00,0.0,WeatherDisplay:10.37,2013-03-24 06:15:00,
2013-03-24 02:20:00,30.9,15.8,29.94,WNW,292,5.8,5.8,53,0.00,BKN,,0.00,0.0,WeatherDisplay:10.37,2013-03-24 06:20:00,
2013-03-24 02:25:00,30.9,15.8,29.91,West,270,4.9,4.9,53,0.00,BKN,,0.00,0.0,WeatherDisplay:10.37,2013-03-24 06:25:00,
2013-03-24 02:30:00,30.6,15.4,29.91,WNW,292,5.8,5.8,53,0.00,BKN,,0.00,0.0,WeatherDisplay:10.37,2013-03-24 06:30:00,
2013-03-24 02:35:00,30.0,14.9,29.91,West,270,5.8,5.8,53,0.00,BKN,,0.00,0.0,WeatherDisplay:10.37,2013-03-24 06:35:00,
2013-03-24 02:40:00,29.7,14.6,29.91,West,270,4.6,4.6,53,0.00,BKN,,0.00,0.0,WeatherDisplay:10.37,2013-03-24 06:40:00,
2013-03-24 02:45:00,29.3,14.3,29.91,WNW,292,4.6,4.6,53,0.00,BKN,,0.00,0.0,WeatherDisplay:10.37,2013-03-24 06:45:00,
2013-03-24 02:50:00,29.3,14.3,29.91,West,270,5.8,5.8,53,0.00,BKN,,0.00,0.0,WeatherDisplay:10.37,2013-03-24 06:50:00,
2013-03-24 02:55:00,29.3,14.3,29.88,West,270,5.8,5.8,53,0.00,BKN,,0.00,0.0,WeatherDisplay:10.37,2013-03-24 06:55:00,
2013-03-24 03:00:00,29.3,14.3,29.88,West,270,5.8,5.8,53,0.00,BKN,,0.00,0.0,WeatherDisplay:10.37,2013-03-24 07:00:00,
2013-03-24 03:05:00,29.1,14.1,29.88,West,270,4.6,4.6,53,0.00,BKN,,0.00,0.0,WeatherDisplay:10.37,2013-03-24 07:05:00,
2013-03-24 03:10:00,28.6,13.6,29.85,WNW,292,3.8,3.8,53,0.00,BKN,,0.00,0.0,WeatherDisplay:10.37,2013-03-24 07:10:00,
2013-03-24 03:15:00,28.2,13.3,29.85,West,270,4.6,4.6,53,0.00,BKN,,0.00,0.0,WeatherDisplay:10.37,2013-03-24 07:15:00,
2013-03-24 03:20:00,27.9,12.9,29.85,West,270,4.6,4.6,53,0.00,BKN,,0.00,0.0,WeatherDisplay:10.37,2013-03-24 07:20:00,
2013-03-24 03:25:00,27.9,12.9,29.88,West,270,5.8,5.8,53,0.00,BKN,,0.00,0.0,WeatherDisplay:10.37,2013-03-24 07:25:00,
2013-03-24 03:30:00,27.7,12.8,29.88,West,270,4.6,4.6,53,0.00,BKN,,0.00,0.0,WeatherDisplay:10.37,2013-03-24 07:30:00,
2013-03-24 03:35:00,27.9,12.9,29.88,West,270,3.5,3.5,53,0.00,BKN,,0.00,0.0,WeatherDisplay:10.37,2013-03-24 07:35:00,
2013-03-24 03:40:00,28.0,13.1,29.88,West,270,4.6,4.6,53,0.00,BKN,,0.00,0.0,WeatherDisplay:10.37,2013-03-24 07:40:00,
2013-03-24 03:45:00,27.9,12.9,29.88,West,270,4.3,4.3,53,0.00,BKN,,0.00,0.0,WeatherDisplay:10.37,2013-03-24 07:45:00,
2013-03-24 03:50:00,27.7,12.8,29.88,West,270,4.6,4.6,53,0.00,BKN,,0.00,0.0,WeatherDisplay:10.37,2013-03-24 07:50:00,
2013-03-24 03:55:00,27.7,12.8,29.85,West,270,6.9,6.9,53,0.00,BKN,,0.00,0.0,WeatherDisplay:10.37,2013-03-24 07:55:00,
2013-03-24 04:00:00,27.3,12.4,29.85,West,270,4.9,4.9,53,0.00,BKN,,0.00,0.0,WeatherDisplay:10.37,2013-03-24 08:00:00,
2013-03-24 04:05:00,27.0,12.1,29.85,WSW,248,4.6,4.6,53,0.00,SCT,,0.00,0.0,WeatherDisplay:10.37,2013-03-24 08:05:00,
2013-03-24 04:10:00,27.1,12.3,29.85,WSW,248,7.4,7.4,53,0.00,SCT,,0.00,0.0,WeatherDisplay:10.37,2013-03-24 08:10:00,
2013-03-24 04:15:00,26.8,11.9,29.85,WSW,248,5.8,5.8,53,0.00,SCT,,0.00,0.0,WeatherDisplay:10.37,2013-03-24 08:15:00,
2013-03-24 04:20:00,26.6,12.2,29.85,WSW,248,5.4,5.4,54,0.00,SCT,,0.00,0.0,WeatherDisplay:10.37,2013-03-24 08:20:00,
2013-03-24 04:25:00,26.4,12.8,29.88,West,270,5.8,5.8,56,0.00,SCT,,0.00,0.0,WeatherDisplay:10.37,2013-03-24 08:25:00,
2013-03-24 04:30:00,26.6,13.0,29.88,WSW,248,5.9,5.9,56,0.00,SCT,,0.00,0.0,WeatherDisplay:10.37,2013-03-24 08:30:00,
2013-03-24 04:35:00,26.2,12.7,29.88,West,270,4.7,4.7,56,0.00,SCT,,0.00,0.0,WeatherDisplay:10.37,2013-03-24 08:35:00,
2013-03-24 04:40:00,26.1,12.5,29.88,WSW,248,5.8,5.8,56,0.00,SCT,,0.00,0.0,WeatherDisplay:10.37,2013-03-24 08:40:00,
2013-03-24 04:45:00,26.1,12.5,29.88,WSW,248,5.8,5.8,56,0.00,SCT,,0.00,0.0,WeatherDisplay:10.37,2013-03-24 08:45:00,
2013-03-24 04:50:00,26.2,12.7,29.88,West,270,6.4,6.4,56,0.00,SCT,,0.00,0.0,WeatherDisplay:10.37,2013-03-24 08:50:00,
2013-03-24 04:55:00,26.2,12.7,29.88,West,270,8.1,8.1,56,0.00,SCT,,0.00,0.0,WeatherDisplay:10.37,2013-03-24 08:55:00,
2013-03-24 05:00:00,26.4,12.8,29.88,West,270,6.9,6.9,56,0.00,SCT,,0.00,0.0,WeatherDisplay:10.37,2013-03-24 09:00:00,
2013-03-24 05:05:00,26.6,14.2,29.88,West,270,8.1,8.1,59,0.00,SCT,,0.00,0.0,WeatherDisplay:10.37,2013-03-24 09:05:00,
2013-03-24 05:10:00,26.6,14.2,29.88,West,270,7.4,7.4,59,0.00,SCT,,0.00,0.0,WeatherDisplay:10.37,2013-03-24 09:10:00,
2013-03-24 05:15:00,27.0,14.1,29.88,West,270,9.2,9.2,58,0.00,SCT,,0.00,0.0,WeatherDisplay:10.37,2013-03-24 09:15:00,
2013-03-24 05:20:00,26.6,14.2,29.88,West,270,8.5,8.5,59,0.00,SCT,,0.00,0.0,WeatherDisplay:10.37,2013-03-24 09:20:00,
2013-03-24 05:26:00,26.6,14.2,29.91,West,270,8.1,8.1,59,0.00,SCT,,0.00,0.0,WeatherDisplay:10.37,2013-03-24 09:26:00,
2013-03-24 05:31:00,26.4,14.0,29.91,West,270,6.0,6.0,59,0.00,SCT,,0.00,0.0,WeatherDisplay:10.37,2013-03-24 09:31:00,
2013-03-24 05:36:00,26.4,14.0,29.91,West,270,8.1,8.1,59,0.00,SCT,,0.00,0.0,WeatherDisplay:10.37,2013-03-24 09:36:00,
2013-03-24 05:41:00,26.2,13.8,29.91,WNW,292,6.9,6.9,59,0.00,SCT,,0.00,0.0,WeatherDisplay:10.37,2013-03-24 09:41:00,
2013-03-24 05:46:00,26.1,13.7,29.91,WNW,292,6.9,6.9,59,0.00,SCT,,0.00,0.0,WeatherDisplay:10.37,2013-03-24 09:46:00,
2013-03-24 05:51:00,25.9,14.3,29.91,West,270,5.9,5.9,61,0.00,SCT,,0.00,0.0,WeatherDisplay:10.37,2013-03-24 09:51:00,
2013-03-24 05:56:00,25.5,13.9,29.91,WNW,292,5.8,5.8,61,0.00,SCT,,0.00,0.0,WeatherDisplay:10.37,2013-03-24 09:56:00,
2013-03-24 06:01:00,24.8,13.6,29.91,WNW,292,1.1,1.1,62,0.00,SCT,,0.00,0.0,WeatherDisplay:10.37,2013-03-24 10:01:00,
2013-03-24 06:06:00,24.1,12.9,29.91,WNW,292,2.6,0.0,62,0.00,FEW,,0.00,0.0,WeatherDisplay:10.37,2013-03-24 10:06:00,
2013-03-24 06:11:00,24.1,12.9,29.91,WNW,292,0.0,0.0,62,0.00,FEW,,0.00,0.0,WeatherDisplay:10.37,2013-03-24 10:11:00,
2013-03-24 06:16:00,23.5,12.4,29.91,WNW,292,0.0,0.0,62,0.00,FEW,,0.00,0.0,WeatherDisplay:10.37,2013-03-24 10:16:00,
2013-03-24 06:21:00,23.4,12.2,29.91,WNW,292,0.0,0.0,62,0.00,FEW,,0.00,0.0,WeatherDisplay:10.37,2013-03-24 10:21:00,
2013-03-24 06:26:00,23.4,12.6,29.91,WNW,292,0.0,0.0,63,0.00,FEW,,0.00,0.0,WeatherDisplay:10.37,2013-03-24 10:26:00,
2013-03-24 06:31:00,23.5,12.8,29.91,West,270,3.3,3.3,63,0.00,FEW,,0.00,0.0,WeatherDisplay:10.37,2013-03-24 10:31:00,
2013-03-24 06:36:00,23.5,12.8,29.91,WSW,248,2.3,2.3,63,0.00,FEW,,0.00,0.0,WeatherDisplay:10.37,2013-03-24 10:36:00,
2013-03-24 06:41:00,23.5,12.8,29.91,WSW,248,3.5,3.5,63,0.00,FEW,,0.00,0.0,WeatherDisplay:10.37,2013-03-24 10:41:00,
2013-03-24 06:46:00,23.4,12.6,29.91,West,270,2.4,2.4,63,0.00,FEW,,0.00,0.0,WeatherDisplay:10.37,2013-03-24 10:46:00,
2013-03-24 06:51:00,23.5,13.5,29.91,West,270,4.6,4.6,65,0.00,FEW,,0.00,0.0,WeatherDisplay:10.37,2013-03-24 10:51:00,
2013-03-24 06:56:00,23.5,15.8,29.91,West,270,3.5,3.5,72,0.00,FEW,,0.00,0.0,WeatherDisplay:10.37,2013-03-24 10:56:00,
2013-03-24 07:01:00,23.5,15.5,29.91,West,270,4.6,4.6,71,0.00,FEW,,0.00,0.0,WeatherDisplay:10.37,2013-03-24 11:01:00,
2013-03-24 07:06:00,23.7,15.4,29.91,WSW,248,3.3,3.3,70,0.00,FEW,,0.00,0.0,WeatherDisplay:10.37,2013-03-24 11:06:00,
2013-03-24 07:11:00,23.5,15.8,29.91,WSW,248,4.6,4.6,72,0.00,FEW,,0.00,0.0,WeatherDisplay:10.37,2013-03-24 11:11:00,
2013-03-24 07:16:00,23.5,15.8,29.91,WSW,248,3.5,3.5,72,0.00,FEW,,0.00,0.0,WeatherDisplay:10.37,2013-03-24 11:16:00,
2013-03-24 07:21:00,23.7,16.0,29.91,WSW,248,4.6,4.6,72,0.00,FEW,,0.00,0.0,WeatherDisplay:10.37,2013-03-24 11:21:00,
2013-03-24 07:26:00,23.9,16.5,29.94,West,270,3.5,3.5,73,0.00,FEW,,0.00,0.0,WeatherDisplay:10.37,2013-03-24 11:26:00,
2013-03-24 07:31:00,23.7,16.0,29.94,West,270,2.6,2.6,72,0.00,FEW,,0.00,0.0,WeatherDisplay:10.37,2013-03-24 11:31:00,
2013-03-24 07:36:00,24.6,17.2,29.94,West,270,3.5,3.5,73,0.00,FEW,,0.00,0.0,WeatherDisplay:10.37,2013-03-24 11:36:00,
2013-03-24 07:41:00,25.5,18.1,29.91,West,270,3.3,3.3,73,0.00,FEW,,0.00,0.0,WeatherDisplay:10.37,2013-03-24 11:41:00,
2013-03-24 07:47:00,27.0,16.8,29.91,West,270,3.8,3.8,65,0.00,FEW,,0.00,0.0,WeatherDisplay:10.37,2013-03-24 11:47:00,
2013-03-24 07:52:00,27.9,16.9,29.91,West,270,3.5,3.5,63,0.00,FEW,,0.00,0.0,WeatherDisplay:10.37,2013-03-24 11:52:00,
2013-03-24 07:57:00,29.1,17.3,29.91,WSW,248,4.7,4.7,61,0.00,FEW,,0.00,0.0,WeatherDisplay:10.37,2013-03-24 11:57:00,
2013-03-24 08:02:00,30.0,17.8,29.91,WSW,248,4.6,4.6,60,0.00,FEW,,0.00,0.0,WeatherDisplay:10.37,2013-03-24 12:02:00,
2013-03-24 08:07:00,31.1,16.8,29.91,West,270,4.6,4.6,55,0.00,FEW,,0.00,0.0,WeatherDisplay:10.37,2013-03-24 12:07:00,
2013-03-24 08:12:00,32.2,16.9,29.91,West,270,5.9,5.9,53,0.00,FEW,,0.00,0.0,WeatherDisplay:10.37,2013-03-24 12:12:00,
2013-03-24 08:17:00,33.3,18.0,29.91,West,270,5.8,5.8,53,0.00,FEW,,0.00,0.0,WeatherDisplay:10.37,2013-03-24 12:17:00,
2013-03-24 08:22:00,33.6,18.3,29.94,WNW,292,4.6,4.6,53,0.00,FEW,,0.00,0.0,WeatherDisplay:10.37,2013-03-24 12:22:00,
2013-03-24 08:27:00,34.7,18.9,29.94,WSW,248,5.8,5.8,52,0.00,FEW,,0.00,0.0,WeatherDisplay:10.37,2013-03-24 12:27:00,
2013-03-24 08:32:00,35.8,19.9,29.94,WNW,292,6.0,6.0,52,0.00,FEW,,0.00,0.0,WeatherDisplay:10.37,2013-03-24 12:32:00,
2013-03-24 08:37:00,36.5,20.5,29.91,WSW,248,6.0,6.0,52,0.00,FEW,,0.00,0.0,WeatherDisplay:10.37,2013-03-24 12:37:00,
2013-03-24 08:42:00,37.4,20.9,29.91,WSW,248,4.6,4.6,51,0.00,FEW,,0.00,0.0,WeatherDisplay:10.37,2013-03-24 12:42:00,
2013-03-24 08:47:00,37.2,21.2,29.91,WNW,292,7.4,7.4,52,0.00,FEW,,0.00,0.0,WeatherDisplay:10.37,2013-03-24 12:47:00,
2013-03-24 08:52:00,39.0,22.4,29.91,WNW,292,5.8,5.8,51,0.00,FEW,,0.00,0.0,WeatherDisplay:10.37,2013-03-24 12:52:00,
2013-03-24 08:57:00,38.7,22.1,29.91,West,270,8.1,8.1,51,0.00,FEW,,0.00,0.0,WeatherDisplay:10.37,2013-03-24 12:57:00,
2013-03-24 09:02:00,40.8,24.1,29.91,WNW,292,6.9,6.9,51,0.00,BKN,,0.00,0.0,WeatherDisplay:10.37,2013-03-24 13:02:00,
2013-03-24 09:07:00,41.4,24.6,29.91,West,270,6.7,6.7,51,0.00,BKN,,0.00,0.0,WeatherDisplay:10.37,2013-03-24 13:07:00,
2013-03-24 09:12:00,38.7,22.1,29.91,WNW,292,5.9,5.9,51,0.00,BKN,,0.00,0.0,WeatherDisplay:10.37,2013-03-24 13:12:00,
2013-03-24 09:17:00,40.1,23.4,29.91,West,270,5.4,5.4,51,0.00,BKN,,0.00,0.0,WeatherDisplay:10.37,2013-03-24 13:17:00,
2013-03-24 09:22:00,42.1,25.2,29.91,WNW,292,6.9,6.9,51,0.00,BKN,,0.00,0.0,WeatherDisplay:10.37,2013-03-24 13:22:00,
2013-03-24 09:27:00,44.2,26.8,29.91,West,270,6.0,6.0,50,0.00,BKN,,0.00,0.0,WeatherDisplay:10.37,2013-03-24 13:27:00,
2013-03-24 09:33:00,44.1,26.6,29.91,West,270,7.4,7.4,50,0.00,BKN,,0.00,0.0,WeatherDisplay:10.37,2013-03-24 13:33:00,
2013-03-24 09:38:00,45.5,27.9,29.88,West,270,5.9,5.9,50,0.00,BKN,,0.00,0.0,WeatherDisplay:10.37,2013-03-24 13:38:00,
2013-03-24 09:43:00,46.9,28.8,29.88,NNW,338,5.8,5.8,49,0.00,BKN,,0.00,0.0,WeatherDisplay:10.37,2013-03-24 13:43:00,
2013-03-24 09:48:00,48.7,30.4,29.88,WNW,292,1.1,0.0,49,0.00,BKN,,0.00,0.0,WeatherDisplay:10.37,2013-03-24 13:48:00,
2013-03-24 09:53:00,50.4,31.9,29.91,NNE,22,3.5,3.5,49,0.00,BKN,,0.00,0.0,WeatherDisplay:10.37,2013-03-24 13:53:00,
2013-03-24 09:58:00,53.2,34.0,29.91,WNW,292,0.0,0.0,48,0.00,BKN,,0.00,0.0,WeatherDisplay:10.37,2013-03-24 13:58:00,
2013-03-24 10:03:00,50.0,31.6,29.91,West,270,2.3,0.0,49,0.00,BKN,,0.00,0.0,WeatherDisplay:10.37,2013-03-24 14:03:00,
2013-03-24 10:08:00,50.0,31.6,29.91,NNE,22,3.5,3.5,49,0.00,BKN,,0.00,0.0,WeatherDisplay:10.37,2013-03-24 14:08:00,
2013-03-24 10:13:00,47.7,29.4,29.91,NNW,338,0.0,0.0,49,0.00,BKN,,0.00,0.0,WeatherDisplay:10.37,2013-03-24 14:13:00,
2013-03-24 10:18:00,43.5,26.1,29.91,WNW,292,4.6,4.6,50,0.00,BKN,,0.00,0.0,WeatherDisplay:10.37,2013-03-24 14:18:00,
2013-03-24 10:23:00,41.9,25.1,29.88,WNW,292,0.0,0.0,51,0.00,BKN,,0.00,0.0,WeatherDisplay:10.37,2013-03-24 14:23:00,
2013-03-24 10:28:00,40.1,23.4,29.88,WNW,292,6.9,6.9,51,0.00,BKN,,0.00,0.0,WeatherDisplay:10.37,2013-03-24 14:28:00,
2013-03-24 10:33:00,38.5,21.9,29.88,NNW,338,4.6,4.6,51,0.00,BKN,,0.00,0.0,WeatherDisplay:10.37,2013-03-24 14:33:00,
2013-03-24 10:38:00,37.9,21.4,29.88,WNW,292,5.9,5.9,51,0.00,BKN,,0.00,0.0,WeatherDisplay:10.37,2013-03-24 14:38:00,
2013-03-24 10:43:00,38.1,21.6,29.88,West,270,4.6,4.6,51,0.00,BKN,,0.00,0.0,WeatherDisplay:10.37,2013-03-24 14:43:00,
2013-03-24 10:48:00,39.2,22.6,29.88,WNW,292,4.6,4.6,51,0.00,BKN,,0.00,0.0,WeatherDisplay:10.37,2013-03-24 14:48:00,
2013-03-24 10:53:00,41.4,24.6,29.88,WNW,292,4.6,4.6,51,0.00,BKN,,0.00,0.0,WeatherDisplay:10.37,2013-03-24 14:53:00,
2013-03-24 10:58:00,43.5,26.1,29.88,WNW,292,0.0,0.0,50,0.00,BKN,,0.00,0.0,WeatherDisplay:10.37,2013-03-24 14:58:00,
2013-03-24 11:03:00,45.9,28.3,29.88,WNW,292,0.0,0.0,50,0.00,BKN,,0.00,0.0,WeatherDisplay:10.37,2013-03-24 15:03:00,
2013-03-24 11:08:00,47.3,29.1,29.88,WNW,292,0.0,0.0,49,0.00,BKN,,0.00,0.0,WeatherDisplay:10.37,2013-03-24 15:08:00,
2013-03-24 11:13:00,47.7,29.4,29.88,WNW,292,4.6,0.0,49,0.00,BKN,,0.00,0.0,WeatherDisplay:10.37,2013-03-24 15:13:00,
2013-03-24 11:18:00,45.7,28.1,29.88,WNW,292,4.6,4.6,50,0.00,BKN,,0.00,0.0,WeatherDisplay:10.37,2013-03-24 15:18:00,
2013-03-24 11:23:00,44.8,27.3,29.88,North,0,1.1,0.0,50,0.00,BKN,,0.00,0.0,WeatherDisplay:10.37,2013-03-24 15:23:00,
2013-03-24 11:28:00,44.1,26.6,29.88,NNE,22,2.3,0.0,50,0.00,BKN,,0.00,0.0,WeatherDisplay:10.37,2013-03-24 15:28:00,
2013-03-24 11:33:00,43.3,25.9,29.88,WNW,292,0.9,0.0,50,0.00,BKN,,0.00,0.0,WeatherDisplay:10.37,2013-03-24 15:33:00,
2013-03-24 11:38:00,42.3,25.4,29.88,WNW,292,3.5,3.5,51,0.00,BKN,,0.00,0.0,WeatherDisplay:10.37,2013-03-24 15:38:00,
2013-03-24 11:43:00,42.1,25.2,29.88,NNW,338,0.9,0.0,51,0.00,BKN,,0.00,0.0,WeatherDisplay:10.37,2013-03-24 15:43:00,
2013-03-24 11:48:00,41.5,24.7,29.88,West,270,4.6,4.6,51,0.00,BKN,,0.00,0.0,WeatherDisplay:10.37,2013-03-24 15:48:00,
2013-03-24 11:54:00,40.6,23.9,29.88,NNW,338,5.8,5.8,51,0.00,BKN,,0.00,0.0,WeatherDisplay:10.37,2013-03-24 15:54:00,
2013-03-24 11:59:00,42.3,25.4,29.88,WNW,292,0.0,0.0,51,0.00,BKN,,0.00,0.0,WeatherDisplay:10.37,2013-03-24 15:59:00,
2013-03-24 12:04:00,43.3,25.9,29.88,West,270,0.0,0.0,50,0.00,BKN,,0.00,0.0,WeatherDisplay:10.37,2013-03-24 16:04:00,
2013-03-24 12:09:00,43.0,25.6,29.88,NNW,338,3.5,3.5,50,0.00,BKN,,0.00,0.0,WeatherDisplay:10.37,2013-03-24 16:09:00,
2013-03-24 12:14:00,44.2,26.8,29.88,ENE,68,2.4,2.4,50,0.00,BKN,,0.00,0.0,WeatherDisplay:10.37,2013-03-24 16:14:00,
2013-03-24 12:19:00,44.2,26.8,29.88,NE,45,4.6,4.6,50,0.00,BKN,,0.00,0.0,WeatherDisplay:10.37,2013-03-24 16:19:00,
2013-03-24 12:24:00,44.2,26.8,29.85,NNW,338,3.5,3.5,50,0.00,BKN,,0.00,0.0,WeatherDisplay:10.37,2013-03-24 16:24:00,
2013-03-24 12:29:00,43.5,26.1,29.85,NNE,22,5.6,5.6,50,0.00,BKN,,0.00,0.0,WeatherDisplay:10.37,2013-03-24 16:29:00,
2013-03-24 12:34:00,42.6,25.7,29.85,NNE,22,3.8,3.8,51,0.00,BKN,,0.00,0.0,WeatherDisplay:10.37,2013-03-24 16:34:00,
2013-03-24 12:39:00,42.8,25.4,29.85,NE,45,4.3,4.3,50,0.00,BKN,,0.00,0.0,WeatherDisplay:10.37,2013-03-24 16:39:00,
2013-03-24 12:44:00,42.4,25.6,29.85,ENE,68,4.6,4.6,51,0.00,BKN,,0.00,0.0,WeatherDisplay:10.37,2013-03-24 16:44:00,
2013-03-24 12:49:00,42.1,25.2,29.85,ENE,68,5.8,5.8,51,0.00,BKN,,0.00,0.0,WeatherDisplay:10.37,2013-03-24 16:49:00,
2013-03-24 12:54:00,42.8,25.4,29.85,NE,45,5.8,5.8,50,0.00,BKN,,0.00,0.0,WeatherDisplay:10.37,2013-03-24 16:54:00,
2013-03-24 12:59:00,45.1,27.6,29.85,ENE,68,2.3,0.0,50,0.00,BKN,,0.00,0.0,WeatherDisplay:10.37,2013-03-24 16:59:00,
2013-03-24 13:04:00,47.5,29.3,29.85,ENE,68,0.0,0.0,49,0.00,BKN,,0.00,0.0,WeatherDisplay:10.37,2013-03-24 17:04:00,
2013-03-24 13:09:00,46.9,28.8,29.85,NNE,22,4.6,4.6,49,0.00,BKN,,0.00,0.0,WeatherDisplay:10.37,2013-03-24 17:09:00,
2013-03-24 13:14:00,45.9,28.3,29.85,North,0,4.6,4.9,50,0.00,BKN,,0.00,0.0,WeatherDisplay:10.37,2013-03-24 17:14:00,
2013-03-24 13:19:00,45.5,27.9,29.85,WNW,292,5.8,5.8,50,0.00,BKN,,0.00,0.0,WeatherDisplay:10.37,2013-03-24 17:19:00,
2013-03-24 13:24:00,44.8,27.3,29.85,NNW,338,5.8,5.8,50,0.00,BKN,,0.00,0.0,WeatherDisplay:10.37,2013-03-24 17:24:00,
2013-03-24 13:29:00,45.9,28.3,29.85,NNW,338,4.6,4.6,50,0.00,BKN,,0.00,0.0,WeatherDisplay:10.37,2013-03-24 17:29:00,
2013-03-24 13:34:00,45.1,27.6,29.85,NNE,22,5.8,5.8,50,0.00,BKN,,0.00,0.0,WeatherDisplay:10.37,2013-03-24 17:34:00,
2013-03-24 13:39:00,45.1,27.6,29.85,NW,315,5.8,5.8,50,0.00,BKN,,0.00,0.0,WeatherDisplay:10.37,2013-03-24 17:39:00,
2013-03-24 13:44:00,45.9,28.3,29.85,ENE,68,8.1,8.1,50,0.00,BKN,,0.00,0.0,WeatherDisplay:10.37,2013-03-24 17:44:00,
2013-03-24 13:49:00,45.5,27.9,29.85,NE,45,4.9,4.9,50,0.00,BKN,,0.00,0.0,WeatherDisplay:10.37,2013-03-24 17:49:00,
2013-03-24 13:54:00,44.1,26.6,29.83,NNE,22,8.1,8.1,50,0.00,BKN,,0.00,0.0,WeatherDisplay:10.37,2013-03-24 17:54:00,
2013-03-24 13:59:00,45.5,27.9,29.83,NNE,22,6.2,6.2,50,0.00,BKN,,0.00,0.0,WeatherDisplay:10.37,2013-03-24 17:59:00,
2013-03-24 14:04:00,44.8,27.3,29.83,NNE,22,8.1,8.1,50,0.00,BKN,,0.00,0.0,WeatherDisplay:10.37,2013-03-24 18:04:00,
2013-03-24 14:09:00,48.4,30.1,29.83,North,0,0.0,0.0,49,0.00,BKN,,0.00,0.0,WeatherDisplay:10.37,2013-03-24 18:09:00,
2013-03-24 14:14:00,48.7,30.4,29.83,North,0,3.5,3.5,49,0.00,BKN,,0.00,0.0,WeatherDisplay:10.37,2013-03-24 18:14:00,
2013-03-24 14:19:00,47.3,29.1,29.83,NE,45,5.8,5.8,49,0.00,BKN,,0.00,0.0,WeatherDisplay:10.37,2013-03-24 18:19:00,
2013-03-24 14:24:00,46.9,28.8,29.83,ENE,68,6.9,6.9,49,0.00,BKN,,0.00,0.0,WeatherDisplay:10.37,2013-03-24 18:24:00,
2013-03-24 14:29:00,45.1,27.6,29.83,NNE,22,8.1,8.1,50,0.00,BKN,,0.00,0.0,WeatherDisplay:10.37,2013-03-24 18:29:00,
2013-03-24 14:34:00,51.4,32.9,29.83,ENE,68,4.6,4.6,49,0.00,BKN,,0.00,200.0,WeatherDisplay:10.37,2013-03-24 18:34:00,
2013-03-24 14:39:00,55.9,36.0,29.83,NNE,22,6.9,6.9,47,0.00,BKN,,0.00,0.0,WeatherDisplay:10.37,2013-03-24 18:39:00,
2013-03-24 14:44:00,48.9,30.6,29.83,ENE,68,9.2,9.2,49,0.00,BKN,,0.00,0.0,WeatherDisplay:10.37,2013-03-24 18:44:00,
2013-03-24 14:49:00,46.8,28.6,29.83,ENE,68,5.8,5.8,49,0.00,BKN,,0.00,0.0,WeatherDisplay:10.37,2013-03-24 18:49:00,
2013-03-24 14:54:00,52.7,33.5,29.80,SE,135,8.1,8.1,48,0.00,BKN,,0.00,300.0,WeatherDisplay:10.37,2013-03-24 18:54:00,
2013-03-24 14:59:00,46.8,28.6,29.80,NE,45,10.4,10.4,49,0.00,BKN,,0.00,0.0,WeatherDisplay:10.37,2013-03-24 18:59:00,
2013-03-24 15:04:00,52.3,33.2,29.80,North,0,6.9,6.9,48,0.00,BKN,,0.00,0.0,WeatherDisplay:10.37,2013-03-24 19:04:00,
2013-03-24 15:10:00,52.3,33.2,29.80,ENE,68,8.1,8.1,48,0.00,BKN,,0.00,0.0,WeatherDisplay:10.37,2013-03-24 19:10:00,
2013-03-24 15:15:00,55.0,35.7,29.80,ENE,68,5.8,5.8,48,0.00,BKN,,0.00,0.0,WeatherDisplay:10.37,2013-03-24 19:15:00,
2013-03-24 15:20:00,49.1,30.7,29.80,ENE,68,8.1,8.1,49,0.00,BKN,,0.00,0.0,WeatherDisplay:10.37,2013-03-24 19:20:00,
2013-03-24 15:25:00,46.4,28.3,29.80,NE,45,6.9,6.9,49,0.00,BKN,,0.00,0.0,WeatherDisplay:10.37,2013-03-24 19:25:00,
2013-03-24 15:30:00,47.5,29.3,29.80,NE,45,8.1,8.1,49,0.00,BKN,,0.00,0.0,WeatherDisplay:10.37,2013-03-24 19:30:00,
2013-03-24 15:35:00,44.2,26.8,29.80,NE,45,8.1,8.1,50,0.00,BKN,,0.00,0.0,WeatherDisplay:10.37,2013-03-24 19:35:00,
2013-03-24 15:40:00,48.0,29.7,29.80,ENE,68,4.6,4.6,49,0.00,BKN,,0.00,0.0,WeatherDisplay:10.37,2013-03-24 19:40:00,
2013-03-24 15:45:00,47.5,29.3,29.80,ENE,68,8.5,8.5,49,0.00,BKN,,0.00,0.0,WeatherDisplay:10.37,2013-03-24 19:45:00,
2013-03-24 15:50:00,46.2,28.6,29.80,ENE,68,10.4,10.4,50,0.00,BKN,,0.00,0.0,WeatherDisplay:10.37,2013-03-24 19:50:00,
2013-03-24 15:55:00,48.4,30.1,29.77,NE,45,6.4,6.4,49,0.00,BKN,,0.00,0.0,WeatherDisplay:10.37,2013-03-24 19:55:00,
2013-03-24 16:00:00,48.4,30.1,29.77,NNE,22,7.8,7.8,49,0.00,BKN,,0.00,0.0,WeatherDisplay:10.37,2013-03-24 20:00:00,
2013-03-24 16:05:00,46.9,28.8,29.77,NNE,22,8.1,8.1,49,0.00,BKN,,0.00,0.0,WeatherDisplay:10.37,2013-03-24 20:05:00,
2013-03-24 16:10:00,46.4,28.3,29.74,NNE,22,5.8,5.8,49,0.00,BKN,,0.00,0.0,WeatherDisplay:10.37,2013-03-24 20:10:00,
2013-03-24 16:15:00,45.1,27.6,29.74,ENE,68,9.2,9.2,50,0.00,BKN,,0.00,0.0,WeatherDisplay:10.37,2013-03-24 20:15:00,
2013-03-24 16:20:00,44.8,27.3,29.74,NE,45,8.1,8.1,50,0.00,BKN,,0.00,0.0,WeatherDisplay:10.37,2013-03-24 20:20:00,
2013-03-24 16:25:00,44.8,27.3,29.77,NE,45,6.9,6.9,50,0.00,BKN,,0.00,0.0,WeatherDisplay:10.37,2013-03-24 20:25:00,
2013-03-24 16:30:00,44.6,27.1,29.77,ENE,68,7.4,7.4,50,0.00,BKN,,0.00,0.0,WeatherDisplay:10.37,2013-03-24 20:30:00,
2013-03-24 16:35:00,44.2,26.8,29.77,ENE,68,9.2,9.2,50,0.00,BKN,,0.00,0.0,WeatherDisplay:10.37,2013-03-24 20:35:00,
2013-03-24 16:40:00,45.5,27.9,29.77,NNE,22,5.8,5.8,50,0.00,BKN,,0.00,0.0,WeatherDisplay:10.37,2013-03-24 20:40:00,
2013-03-24 16:45:00,45.1,27.6,29.77,ENE,68,10.4,10.4,50,0.00,BKN,,0.00,0.0,WeatherDisplay:10.37,2013-03-24 20:45:00,
2013-03-24 16:50:00,43.3,25.9,29.77,ENE,68,10.4,10.4,50,0.00,BKN,,0.00,0.0,WeatherDisplay:10.37,2013-03-24 20:50:00,
2013-03-24 16:55:00,43.7,26.3,29.77,ENE,68,8.1,8.1,50,0.00,BKN,,0.00,0.0,WeatherDisplay:10.37,2013-03-24 20:55:00,
2013-03-24 17:00:00,42.3,25.4,29.77,NE,45,10.2,10.2,51,0.00,BKN,,0.00,0.0,WeatherDisplay:10.37,2013-03-24 21:00:00,
2013-03-24 17:05:00,41.2,24.4,29.77,NE,45,6.9,6.9,51,0.00,BKN,,0.00,0.0,WeatherDisplay:10.37,2013-03-24 21:05:00,
2013-03-24 17:10:00,41.4,24.6,29.74,NNE,22,6.9,6.9,51,0.00,BKN,,0.00,0.0,WeatherDisplay:10.37,2013-03-24 21:10:00,
2013-03-24 17:15:00,42.1,25.2,29.74,ENE,68,5.8,5.8,51,0.00,BKN,,0.00,0.0,WeatherDisplay:10.37,2013-03-24 21:15:00,
2013-03-24 17:20:00,41.7,24.9,29.74,NE,47,6.0,8.0,51,0.00,BKN,,0.00,0.0,WeatherDisplay:10.37,2013-03-24 21:20:00,
2013-03-24 17:25:00,41.6,24.8,29.77,NE,48,7.0,9.0,51,0.00,BKN,,0.00,0.0,WeatherDisplay:10.37,2013-03-24 21:25:00,
2013-03-24 17:30:00,41.0,24.2,29.77,ENE,68,5.8,5.8,51,0.00,BKN,,0.00,0.0,WeatherDisplay:10.37,2013-03-24 21:30:00,
2013-03-24 17:35:00,39.4,22.7,29.77,NE,45,9.2,9.2,51,0.00,BKN,,0.00,0.0,WeatherDisplay:10.37,2013-03-24 21:35:00,
2013-03-24 17:40:00,38.7,22.1,29.77,NNE,22,10.0,10.0,51,0.00,BKN,,0.00,0.0,WeatherDisplay:10.37,2013-03-24 21:40:00,
2013-03-24 17:45:00,38.5,21.9,29.77,NE,53,3.0,8.0,51,0.00,BKN,,0.00,0.0,WeatherDisplay:10.37,2013-03-24 21:45:00,
2013-03-24 17:50:00,38.2,21.7,29.77,ENE,67,6.0,7.0,51,0.00,BKN,,0.00,0.0,WeatherDisplay:10.37,2013-03-24 21:50:00,
2013-03-24 17:55:00,37.5,21.0,29.77,ENE,64,3.0,6.0,51,0.00,BKN,,0.00,0.0,WeatherDisplay:10.37,2013-03-24 21:55:00,
2013-03-24 18:00:00,36.3,20.4,29.77,ENE,65,7.0,12.0,52,0.00,BKN,,0.00,0.0,WeatherDisplay:10.37,2013-03-24 22:00:00,
2013-03-24 18:05:00,35.6,19.7,29.77,ENE,71,7.0,13.0,52,0.00,OVC,,0.00,0.0,WeatherDisplay:10.37,2013-03-24 22:05:00,
2013-03-24 18:10:00,35.2,19.4,29.77,ENE,73,7.0,10.0,52,0.00,OVC,,0.00,0.0,WeatherDisplay:10.37,2013-03-24 22:10:00,
2013-03-24 18:15:00,34.9,19.1,29.77,ENE,77,5.0,7.0,52,0.00,OVC,,0.00,0.0,WeatherDisplay:10.37,2013-03-24 22:15:00,
2013-03-24 18:20:00,34.7,18.9,29.77,East,79,6.0,10.0,52,0.00,OVC,,0.00,0.0,WeatherDisplay:10.37,2013-03-24 22:20:00,
2013-03-24 18:25:00,34.3,18.5,29.77,East,90,8.5,8.5,52,0.00,OVC,,0.00,0.0,WeatherDisplay:10.37,2013-03-24 22:25:00,
2013-03-24 18:30:00,34.2,18.3,29.77,ENE,68,5.9,5.9,52,0.00,OVC,,0.00,0.0,WeatherDisplay:10.37,2013-03-24 22:30:00,
2013-03-24 18:35:00,34.0,18.2,29.77,ENE,68,6.2,6.2,52,0.00,OVC,,0.00,0.0,WeatherDisplay:10.37,2013-03-24 22:35:00,
2013-03-24 18:40:00,33.8,18.0,29.74,ESE,112,9.2,9.2,52,0.00,OVC,,0.00,0.0,WeatherDisplay:10.37,2013-03-24 22:40:00,
2013-03-24 18:45:00,33.4,18.1,29.74,ENE,68,4.9,4.9,53,0.00,OVC,,0.00,0.0,WeatherDisplay:10.37,2013-03-24 22:45:00,
2013-03-24 18:50:00,33.3,18.0,29.74,ESE,112,5.8,5.8,53,0.00,OVC,,0.00,0.0,WeatherDisplay:10.37,2013-03-24 22:50:00,
2013-03-24 18:55:00,32.9,17.6,29.77,ENE,68,6.9,6.9,53,0.00,OVC,,0.00,0.0,WeatherDisplay:10.37,2013-03-24 22:55:00,
2013-03-24 19:00:00,32.7,17.5,29.77,ENE,68,8.1,8.1,53,0.00,OVC,,0.00,0.0,WeatherDisplay:10.37,2013-03-24 23:00:00,
2013-03-24 19:05:00,32.4,17.1,29.77,ENE,68,5.8,5.8,53,0.00,OVC,,0.00,0.0,WeatherDisplay:10.37,2013-03-24 23:05:00,
2013-03-24 19:10:00,32.2,16.9,29.77,ENE,68,5.9,5.9,53,0.00,OVC,,0.00,0.0,WeatherDisplay:10.37,2013-03-24 23:10:00,
2013-03-24 19:15:00,32.0,16.8,29.77,ENE,68,6.9,6.9,53,0.00,OVC,,0.00,0.0,WeatherDisplay:10.37,2013-03-24 23:15:00,
2013-03-24 19:20:00,31.6,16.4,29.77,East,90,4.6,4.6,53,0.00,OVC,,0.00,0.0,WeatherDisplay:10.37,2013-03-24 23:20:00,
2013-03-24 19:25:00,31.6,16.4,29.77,ENE,68,5.8,5.8,53,0.00,OVC,,0.00,0.0,WeatherDisplay:10.37,2013-03-24 23:25:00,
2013-03-24 19:30:00,31.5,16.3,29.77,ENE,68,5.8,5.8,53,0.00,OVC,,0.00,2.5,WeatherDisplay:10.37,2013-03-24 23:30:00,
2013-03-24 19:35:00,31.3,16.1,29.77,ENE,68,4.6,4.6,53,0.00,OVC,,0.00,0.0,WeatherDisplay:10.37,2013-03-24 23:35:00,
2013-03-24 19:40:00,31.1,15.9,29.77,ESE,112,5.8,5.8,53,0.00,OVC,,0.00,0.0,WeatherDisplay:10.37,2013-03-24 23:40:00,
2013-03-24 19:45:00,31.1,15.9,29.77,ENE,68,5.8,5.8,53,0.00,OVC,,0.00,0.0,WeatherDisplay:10.37,2013-03-24 23:45:00,
2013-03-24 19:50:00,31.1,15.9,29.77,East,90,7.1,7.1,53,0.00,OVC,,0.00,0.0,WeatherDisplay:10.37,2013-03-24 23:50:00,
2013-03-24 19:55:00,30.9,15.8,29.74,ESE,112,4.6,4.6,53,0.00,OVC,,0.00,0.0,WeatherDisplay:10.37,2013-03-24 23:55:00,
2013-03-24 20:00:00,30.6,15.4,29.74,East,90,2.4,2.6,53,0.00,OVC,,0.00,0.0,WeatherDisplay:10.37,2013-03-25 00:00:00,
2013-03-24 20:05:00,30.2,15.1,29.74,ESE,112,3.5,3.5,53,0.00,OVC,,0.00,0.0,WeatherDisplay:10.37,2013-03-25 00:05:00,
2013-03-24 20:10:00,29.8,14.8,29.77,East,90,0.0,0.0,53,0.00,OVC,,0.00,0.0,WeatherDisplay:10.37,2013-03-25 00:10:00,
2013-03-24 20:15:00,29.3,14.3,29.77,ENE,68,0.0,0.0,53,0.00,OVC,,0.00,0.0,WeatherDisplay:10.37,2013-03-25 00:15:00,
2013-03-24 20:20:00,29.1,14.1,29.77,East,90,0.0,0.0,53,0.00,OVC,,0.00,0.0,WeatherDisplay:10.37,2013-03-25 00:20:00,
2013-03-24 20:25:00,28.8,13.8,29.77,East,90,0.0,0.0,53,0.00,OVC,,0.00,0.0,WeatherDisplay:10.37,2013-03-25 00:25:00,
2013-03-24 20:30:00,28.6,12.3,29.77,ENE,68,3.5,3.5,50,0.00,OVC,,0.00,0.0,WeatherDisplay:10.37,2013-03-25 00:30:00,
2013-03-24 20:35:00,28.4,12.6,29.77,ENE,68,0.0,0.0,51,0.00,OVC,,0.00,0.0,WeatherDisplay:10.37,2013-03-25 00:35:00,
2013-03-24 20:40:00,28.4,12.6,29.74,ENE,68,3.5,3.5,51,0.00,OVC,,0.00,0.0,WeatherDisplay:10.37,2013-03-25 00:40:00,
2013-03-24 20:45:00,28.6,13.6,29.74,East,90,2.4,2.4,53,0.00,OVC,,0.00,0.0,WeatherDisplay:10.37,2013-03-25 00:45:00,
2013-03-24 20:50:00,28.4,13.4,29.74,ENE,68,0.0,0.0,53,0.00,OVC,,0.00,0.0,WeatherDisplay:10.37,2013-03-25 00:50:00,
2013-03-24 20:55:00,28.2,12.4,29.77,East,90,0.0,0.0,51,0.00,OVC,,0.00,0.0,WeatherDisplay:10.37,2013-03-25 00:55:00,
2013-03-24 21:00:00,28.2,13.3,29.77,ENE,68,0.0,0.0,53,0.00,OVC,,0.00,0.0,WeatherDisplay:10.37,2013-03-25 01:00:00,
2013-03-24 21:05:00,28.0,13.1,29.77,ENE,68,0.0,0.0,53,0.00,OVC,,0.00,0.0,WeatherDisplay:10.37,2013-03-25 01:05:00,
2013-03-24 21:10:00,28.2,13.3,29.77,ENE,68,0.0,0.0,53,0.00,OVC,,0.00,0.0,WeatherDisplay:10.37,2013-03-25 01:10:00,
2013-03-24 21:15:00,28.4,13.4,29.77,ENE,68,0.0,0.0,53,0.00,OVC,,0.00,0.0,WeatherDisplay:10.37,2013-03-25 01:15:00,
2013-03-24 21:20:00,28.6,13.6,29.77,ENE,68,0.0,0.0,53,0.00,OVC,,0.00,0.0,WeatherDisplay:10.37,2013-03-25 01:20:00,
2013-03-24 21:25:00,28.4,13.4,29.77,East,90,0.0,0.0,53,0.00,OVC,,0.00,0.0,WeatherDisplay:10.37,2013-03-25 01:25:00,
2013-03-24 21:30:00,28.2,13.3,29.77,East,90,0.0,0.0,53,0.00,OVC,,0.00,0.0,WeatherDisplay:10.37,2013-03-25 01:30:00,
2013-03-24 21:35:00,27.9,12.9,29.77,East,90,0.0,0.0,53,0.00,OVC,,0.00,0.0,WeatherDisplay:10.37,2013-03-25 01:35:00,
2013-03-24 21:40:00,27.9,12.9,29.74,East,90,0.0,0.0,53,0.00,OVC,,0.00,0.0,WeatherDisplay:10.37,2013-03-25 01:40:00,
2013-03-24 21:45:00,28.0,13.1,29.74,East,90,0.0,0.0,53,0.00,OVC,,0.00,0.0,WeatherDisplay:10.37,2013-03-25 01:45:00,
2013-03-24 21:50:00,27.9,12.9,29.74,East,90,0.0,0.0,53,0.00,OVC,,0.00,0.0,WeatherDisplay:10.37,2013-03-25 01:50:00,
2013-03-24 21:55:00,27.3,12.4,29.77,East,90,0.0,0.0,53,0.00,OVC,,0.00,0.0,WeatherDisplay:10.37,2013-03-25 01:55:00,
2013-03-24 22:00:00,27.0,11.2,29.77,East,90,0.0,0.0,51,0.00,OVC,,0.00,0.0,WeatherDisplay:10.37,2013-03-25 02:00:00,
2013-03-24 22:05:00,26.8,11.0,29.77,East,90,0.0,0.0,51,0.00,OVC,,0.00,0.0,WeatherDisplay:10.37,2013-03-25 02:05:00,
2013-03-24 22:10:00,26.8,11.0,29.74,East,90,0.0,0.0,51,0.00,OVC,,0.00,0.0,WeatherDisplay:10.37,2013-03-25 02:10:00,
2013-03-24 22:15:00,27.0,11.2,29.74,East,90,0.0,0.0,51,0.00,OVC,,0.00,0.0,WeatherDisplay:10.37,2013-03-25 02:15:00,
2013-03-24 22:20:00,27.3,11.5,29.74,East,90,0.0,0.0,51,0.00,OVC,,0.00,0.0,WeatherDisplay:10.37,2013-03-25 02:20:00,
2013-03-24 22:25:00,27.5,12.6,29.74,East,90,0.0,0.0,53,0.00,OVC,,0.00,0.0,WeatherDisplay:10.37,2013-03-25 02:25:00,
2013-03-24 22:30:00,27.9,12.9,29.74,ENE,68,3.5,3.5,53,0.00,OVC,,0.00,0.0,WeatherDisplay:10.37,2013-03-25 02:30:00,
2013-03-24 22:36:00,28.6,13.6,29.74,ENE,68,4.6,4.6,53,0.00,OVC,,0.00,0.0,WeatherDisplay:10.37,2013-03-25 02:36:00,
2013-03-24 22:42:00,29.5,14.4,29.71,ENE,68,5.8,5.8,53,0.00,OVC,,0.00,0.0,WeatherDisplay:10.37,2013-03-25 02:42:00,
2013-03-24 22:47:00,30.2,15.1,29.71,ENE,68,5.9,5.9,53,0.00,OVC,,0.00,0.0,WeatherDisplay:10.37,2013-03-25 02:47:00,
2013-03-24 22:52:00,30.7,15.6,29.71,ENE,68,5.9,5.9,53,0.00,OVC,,0.00,0.0,WeatherDisplay:10.37,2013-03-25 02:52:00,
2013-03-24 22:57:00,30.9,15.8,29.71,ENE,68,6.0,6.0,53,0.00,OVC,,0.00,0.0,WeatherDisplay:10.37,2013-03-25 02:57:00,
2013-03-24 23:02:00,31.5,16.3,29.71,ENE,68,8.1,8.1,53,0.00,OVC,,0.00,0.0,WeatherDisplay:10.37,2013-03-25 03:02:00,
2013-03-24 23:07:00,31.8,16.6,29.71,ENE,68,7.1,7.1,53,0.00,OVC,,0.00,0.0,WeatherDisplay:10.37,2013-03-25 03:07:00,
2013-03-24 23:12:00,31.8,16.6,29.68,ENE,68,8.1,8.1,53,0.00,OVC,,0.00,0.0,WeatherDisplay:10.37,2013-03-25 03:12:00,
2013-03-24 23:18:00,32.2,16.9,29.68,ENE,68,6.9,6.9,53,0.00,OVC,,0.00,0.0,WeatherDisplay:10.37,2013-03-25 03:18:00,
2013-03-24 23:23:00,32.2,16.9,29.74,ENE,68,5.8,5.8,53,0.00,OVC,,0.00,0.0,WeatherDisplay:10.37,2013-03-25 03:23:00,
2013-03-24 23:28:00,32.2,16.9,29.74,ENE,68,5.8,5.8,53,0.00,OVC,,0.00,0.0,WeatherDisplay:10.37,2013-03-25 03:28:00,
2013-03-24 23:33:00,32.4,17.1,29.74,East,90,6.2,6.2,53,0.00,OVC,,0.00,0.0,WeatherDisplay:10.37,2013-03-25 03:33:00,
2013-03-24 23:38:00,32.4,17.1,29.68,ENE,68,5.9,5.9,53,0.00,OVC,,0.00,0.0,WeatherDisplay:10.37,2013-03-25 03:38:00,
2013-03-24 23:43:00,32.4,17.1,29.68,ESE,112,5.8,5.8,53,0.00,OVC,,0.00,0.0,WeatherDisplay:10.37,2013-03-25 03:43:00,
2013-03-24 23:48:00,32.4,17.1,29.68,ENE,68,5.8,5.8,53,0.00,OVC,,0.00,0.0,WeatherDisplay:10.37,2013-03-25 03:48:00,
2013-03-24 23:54:00,32.5,17.3,29.71,ENE,68,6.4,6.4,53,0.00,OVC,,0.00,0.0,WeatherDisplay:10.37,2013-03-25 03:54:00,
2013-03-24 23:59:00,32.5,17.3,29.71,ENE,68,6.9,6.9,53,0.00,OVC,,0.00,0.0,WeatherDisplay:10.37,2013-03-25 03:59:00,